createdAt,value
2022-10-20T00:03:46.138Z,12.7
2022-10-20T00:09:15.387Z,12.7
2022-10-20T00:14:42.322Z,12.7
2022-10-20T00:20:17.599Z,12.5
2022-10-20T00:25:52.857Z,12.5
2022-10-20T00:31:45.956Z,12.3
2022-10-20T00:37:00.389Z,12.2
2022-10-20T00:42:55.546Z,12.3
2022-10-20T00:48:16.052Z,12.3
2022-10-20T00:53:55.631Z,12.3
2022-10-20T00:59:24.522Z,12.3
2022-10-20T01:04:45.156Z,12.4
2022-10-20T01:10:17.425Z,12.4
2022-10-20T01:15:50.814Z,12.5
2022-10-20T01:21:43.414Z,12.6
2022-10-20T01:27:04.836Z,12.7
2022-10-20T01:32:52.249Z,12.6
2022-10-20T01:38:21.413Z,12.6
2022-10-20T01:43:44.779Z,12.4
2022-10-20T01:49:35.121Z,12.5
2022-10-20T01:54:51.309Z,12.5
2022-10-20T02:00:19.951Z,12.6
2022-10-20T02:06:02.317Z,12.6
2022-10-20T02:11:49.364Z,12.5
2022-10-20T02:17:15.879Z,12.6
2022-10-20T02:22:55.198Z,12.5
2022-10-20T02:28:25.686Z,12.5
2022-10-20T02:33:35.651Z,12.5
2022-10-20T02:39:22.857Z,12.5
2022-10-20T02:45:07.861Z,12.5
2022-10-20T02:50:31.609Z,12.6
2022-10-20T02:56:08.792Z,12.7
2022-10-20T03:01:35.495Z,12.6
2022-10-20T03:07:15.197Z,12.6
2022-10-20T03:12:55.263Z,12.5
2022-10-20T03:18:25.394Z,12.6
2022-10-20T03:23:56.325Z,12.6
2022-10-20T03:29:34.861Z,12.6
2022-10-20T03:34:54.805Z,12.6
2022-10-20T03:40:42.269Z,12.7
2022-10-20T03:46:10.456Z,12.7
2022-10-20T03:51:30.153Z,12.8
2022-10-20T03:57:05.427Z,12.8
2022-10-20T04:02:28.045Z,12.8
2022-10-20T04:08:08.526Z,12.9
2022-10-20T04:13:52.789Z,12.9
2022-10-20T04:19:22.875Z,12.9
2022-10-20T04:25:02.899Z,12.9
2022-10-20T04:30:15.197Z,12.9
2022-10-20T04:36:13.819Z,12.9
2022-10-20T04:41:39.902Z,12.8
2022-10-20T04:46:53.899Z,12.8
2022-10-20T04:52:50.272Z,12.8
2022-10-20T04:58:17.411Z,12.8
2022-10-20T05:03:51.934Z,12.8
2022-10-20T05:09:21.020Z,12.8
2022-10-20T05:14:45.033Z,12.9
2022-10-20T05:20:41.376Z,12.9
2022-10-20T05:25:48.014Z,12.9
2022-10-20T05:31:25.272Z,12.9
2022-10-20T05:37:18.332Z,13
2022-10-20T05:42:43.780Z,13
2022-10-20T05:48:24.816Z,13
2022-10-20T05:54:00.962Z,13
2022-10-20T05:59:19.534Z,13
2022-10-20T06:04:43.663Z,13.1
2022-10-20T06:10:42.300Z,13.1
2022-10-20T06:16:14.372Z,13.1
2022-10-20T06:26:59.440Z,13.2
2022-10-20T06:32:50.217Z,13.3
2022-10-20T06:38:21.485Z,13.4
2022-10-20T06:43:46.452Z,13.5
2022-10-20T06:49:10.399Z,13.5
2022-10-20T06:55:09.582Z,13.6
2022-10-20T07:00:22.285Z,13.6
2022-10-20T07:06:02.720Z,13.7
2022-10-20T07:11:43.012Z,13.7
2022-10-20T07:16:56.644Z,13.8
2022-10-20T07:22:43.012Z,13.9
2022-10-20T07:28:28.944Z,14
2022-10-20T07:33:37.907Z,14.1
2022-10-20T07:39:14.276Z,14.2
2022-10-20T07:45:06.635Z,14.2
2022-10-20T07:50:32.498Z,14.2
2022-10-20T07:56:10.856Z,14.1
2022-10-20T08:01:47.520Z,14.2
2022-10-20T08:07:11.925Z,14.2
2022-10-20T08:12:54.485Z,14.2
2022-10-20T08:18:14.262Z,14.2
2022-10-20T08:23:55.040Z,14.3
2022-10-20T08:29:23.369Z,14.4
2022-10-20T08:34:48.406Z,14.5
2022-10-20T08:40:46.061Z,14.5
2022-10-20T08:46:00.183Z,14.5
2022-10-20T08:51:52.116Z,14.4
2022-10-20T08:57:19.620Z,14.5
2022-10-20T09:02:43.024Z,14.7
2022-10-20T09:08:27.573Z,14.8
2022-10-20T09:13:46.270Z,14.9
2022-10-20T09:19:35.579Z,14.9
2022-10-20T09:25:04.851Z,14.7
2022-10-20T09:30:25.297Z,14.5
2022-10-20T09:36:18.960Z,14.5
2022-10-20T09:41:44.712Z,14.4
2022-10-20T09:47:23.112Z,14.4
2022-10-20T09:53:03.572Z,14.5
2022-10-20T09:58:17.062Z,14.6
2022-10-20T10:03:57.080Z,14.7
2022-10-20T10:09:28.268Z,14.7
2022-10-20T10:15:09.407Z,14.8
2022-10-20T10:20:30.177Z,15
2022-10-20T10:26:03.525Z,15.3
2022-10-20T10:31:53.696Z,15.5
2022-10-20T10:37:12.715Z,15.4
2022-10-20T10:43:02.015Z,15.5
2022-10-20T10:48:48.082Z,15.3
2022-10-20T10:54:13.532Z,15.3
2022-10-20T10:59:35.515Z,15.4
2022-10-20T11:05:12.426Z,15.6
2022-10-20T11:11:05.228Z,15.6
2022-10-20T11:16:13.676Z,15.6
2022-10-20T11:21:54.396Z,15.5
2022-10-20T11:27:46.370Z,15.5
2022-10-20T11:33:22.254Z,15.7
2022-10-20T11:38:33.188Z,15.9
2022-10-20T11:44:18.686Z,16.1
2022-10-20T11:49:45.957Z,16
2022-10-20T11:55:32.396Z,15.8
2022-10-20T12:01:06.298Z,16.1
2022-10-20T12:06:21.457Z,16.1
2022-10-20T12:12:06.859Z,16
2022-10-20T12:17:44.294Z,16
2022-10-20T12:23:26.890Z,16.1
2022-10-20T12:34:14.092Z,15.8
2022-10-20T12:40:03.308Z,15.8
2022-10-20T12:45:42.606Z,15.9
2022-10-20T12:51:03.842Z,15.8
2022-10-20T12:56:35.918Z,15.8
2022-10-20T13:02:05.103Z,16
2022-10-20T13:07:52.766Z,16.3
2022-10-20T13:13:19.403Z,16.4
2022-10-20T13:19:06.316Z,16.4
2022-10-20T13:24:23.947Z,16.2
2022-10-20T13:29:56.836Z,16.3
2022-10-20T13:35:47.959Z,16.3
2022-10-20T13:41:20.589Z,16.3
2022-10-20T13:46:32.624Z,16.3
2022-10-20T13:52:18.403Z,16.2
2022-10-20T13:57:49.902Z,16.2
2022-10-20T14:03:41.665Z,16.1
2022-10-20T14:08:57.290Z,16.3
2022-10-20T14:14:28.952Z,16.2
2022-10-20T14:19:59.554Z,16.1
2022-10-20T14:25:41.717Z,16.2
2022-10-20T14:31:06.599Z,16.3
2022-10-20T14:37:00.295Z,16.5
2022-10-20T14:42:32.640Z,16.6
2022-10-20T14:47:59.563Z,16.4
2022-10-20T14:53:34.781Z,16.4
2022-10-20T14:59:10.066Z,16.3
2022-10-20T15:04:39.501Z,16.4
2022-10-20T15:10:18.501Z,16.4
2022-10-20T15:15:59.331Z,16.3
2022-10-20T15:21:26.577Z,16.2
2022-10-20T15:27:01.235Z,16.1
2022-10-20T15:32:35.984Z,16.2
2022-10-20T15:37:52.009Z,16
2022-10-20T15:43:52.725Z,15.9
2022-10-20T15:49:11.344Z,15.7
2022-10-20T15:54:35.547Z,15.7
2022-10-20T16:00:24.703Z,15.7
2022-10-20T16:05:40.728Z,15.7
2022-10-20T16:11:32.653Z,15.7
2022-10-20T16:16:54.137Z,15.6
2022-10-20T16:22:33.216Z,15.2
2022-10-20T16:28:04.977Z,15.2
2022-10-20T16:33:41.356Z,15.1
2022-10-20T16:39:03.742Z,15
2022-10-20T16:44:45.921Z,14.9
2022-10-20T16:50:12.680Z,14.9
2022-10-20T16:55:46.496Z,15.1
2022-10-20T17:01:39.470Z,15.1
2022-10-20T17:07:04.513Z,15
2022-10-20T17:12:47.569Z,15
2022-10-20T17:18:10.654Z,14.9
2022-10-20T17:23:55.431Z,14.9
2022-10-20T17:29:27.815Z,14.9
2022-10-20T17:34:40.037Z,14.9
2022-10-20T17:40:22.566Z,14.8
2022-10-20T17:46:07.997Z,14.8
2022-10-20T17:51:38.046Z,14.8
2022-10-20T17:57:08.252Z,14.8
2022-10-20T18:02:26.409Z,14.8
2022-10-20T18:08:20.284Z,14.6
2022-10-20T18:13:33.740Z,14.4
2022-10-20T18:19:30.899Z,14.4
2022-10-20T18:24:48.380Z,14.2
2022-10-20T18:30:22.126Z,14.3
2022-10-20T18:36:08.089Z,14.3
2022-10-20T18:41:26.907Z,14.3
2022-10-20T18:46:52.175Z,14.1
2022-10-20T18:52:51.186Z,14.2
2022-10-20T18:58:19.870Z,14.2
2022-10-20T19:03:58.545Z,14.1
2022-10-20T19:09:31.604Z,14
2022-10-20T19:14:54.900Z,13.9
2022-10-20T19:20:12.286Z,13.8
2022-10-20T19:25:52.814Z,13.9
2022-10-20T19:31:22.621Z,13.8
2022-10-20T19:36:55.192Z,14
2022-10-20T19:42:46.931Z,13.9
2022-10-20T19:48:00.299Z,13.9
2022-10-20T19:53:44.206Z,13.8
2022-10-20T19:59:15.469Z,13.9
2022-10-20T20:04:57.175Z,13.7
2022-10-20T20:10:22.757Z,13.5
2022-10-20T20:15:47.782Z,13.6
2022-10-20T20:21:39.319Z,13.6
2022-10-20T20:27:00.619Z,13.6
2022-10-20T20:32:35.717Z,13.4
2022-10-20T20:38:14.879Z,13.4
2022-10-20T20:43:37.411Z,13.6
2022-10-20T20:49:10.981Z,13.4
2022-10-20T20:54:54.172Z,13.4
2022-10-20T21:00:21.511Z,13.4
2022-10-20T21:06:06.753Z,13.4
2022-10-20T21:11:43.735Z,13.1
2022-10-20T21:16:59.187Z,13.5
2022-10-20T21:22:46.288Z,13.6
2022-10-20T21:28:08.440Z,13.4
2022-10-20T21:33:53.724Z,13.4
2022-10-20T21:39:13.406Z,13.4
2022-10-20T21:45:05.326Z,13.4
2022-10-20T21:50:15.749Z,13.3
2022-10-20T21:55:56.101Z,13.4
2022-10-20T22:01:43.155Z,13.2
2022-10-20T22:06:54.987Z,13.3
2022-10-20T22:12:43.468Z,12.9
2022-10-20T22:18:23.488Z,12.9
2022-10-20T22:23:52.477Z,12.7
2022-10-20T22:29:17.273Z,12.9
2022-10-20T22:34:48.857Z,13.1
2022-10-20T22:40:27.234Z,13.1
2022-10-20T22:45:57.347Z,13.2
2022-10-20T22:51:21.755Z,13.3
2022-10-20T22:57:20.761Z,13.5
2022-10-20T23:02:38.248Z,13.3
2022-10-20T23:08:29.391Z,13.4
2022-10-20T23:13:52.803Z,13.1
2022-10-20T23:19:08.677Z,13
2022-10-20T23:35:50.560Z,13.3
2022-10-20T23:47:12.327Z,13.3
2022-10-20T23:52:58.821Z,13.3
2022-10-20T23:58:25.256Z,13.2
